Date,TemperatureHighF,TemperatureAvgF,TemperatureLowF,DewpointHighF,DewpointAvgF,DewpointLowF,HumidityHigh,HumidityAvg,HumidityLow,PressureMaxIn,PressureMinIn,WindSpeedMaxMPH,WindSpeedAvgMPH,GustSpeedMaxMPH,PrecipitationSumIn
2013-9-1,81,64,47,42,38,32,69,41,20,29.93,29.81,15,4,19,0.19
2013-9-2,78,67,62,57,42,31,84,45,23,29.83,29.68,15,5,25,0.02
2013-9-3,81,70,59,53,47,42,68,46,27,29.85,29.73,14,4,16,0.00
2013-9-4,80,68,60,57,51,46,75,55,36,29.88,29.82,12,4,19,0.00
2013-9-5,84,71,62,56,51,46,72,49,30,29.89,29.71,16,6,18,0.00
2013-9-6,83,69,58,54,48,44,67,48,27,29.81,29.73,20,6,26,0.01
2013-9-7,76,67,57,57,49,42,89,54,36,29.83,29.74,16,3,24,0.00
2013-9-8,72,60,54,60,50,43,88,71,50,30.03,29.65,17,3,21,0.08
2013-9-9,67,57,47,49,44,39,92,64,36,29.93,29.73,17,3,17,0.00
2013-9-10,71,60,49,44,41,37,65,51,35,30.00,29.92,14,5,16,0.00
2013-9-11,72,62,54,45,41,38,65,47,31,30.11,29.98,13,5,18,0.00
2013-9-12,68,59,48,50,45,41,77,59,39,30.11,29.90,19,5,25,0.00
2013-9-13,69,58,50,51,47,42,90,69,37,29.90,29.69,7,2,11,0.09
2013-9-14,59,55,52,53,50,46,95,85,61,29.99,29.72,13,4,20,1.37
2013-9-15,63,55,49,56,51,48,98,89,65,30.05,29.88,17,4,24,0.39
2013-9-16,73,60,49,57,50,41,98,73,44,29.88,29.66,13,3,17,0.00
2013-9-17,71,60,51,51,44,27,92,58,20,29.69,29.43,27,6,40,0.06
2013-9-18,62,51,40,46,37,24,92,62,27,29.86,29.47,20,5,27,0.00
2013-9-19,54,45,37,39,34,30,77,65,46,30.10,29.86,12,3,15,0.00
2013-9-20,64,51,40,38,30,19,68,45,24,30.09,29.75,15,6,21,0.00
2013-9-21,77,62,51,38,29,18,43,30,16,29.75,29.42,24,5,25,0.00
2013-9-22,65,58,51,43,36,29,62,45,28,29.47,29.32,17,4,22,0.00
2013-9-23,61,52,42,40,33,21,84,51,22,29.82,29.47,11,2,17,0.00
2013-9-24,63,54,40,38,31,26,65,42,28,29.83,29.50,38,9,47,0.00
2013-9-25,57,42,38,39,36,25,97,80,30,29.63,29.48,14,2,21,0.09
2013-9-26,38,34,30,36,32,28,98,95,85,30.03,29.62,14,4,19,0.10
2013-9-27,42,34,30,35,31,27,98,90,73,30.03,29.96,6,2,10,0.20
2013-9-28,55,45,29,39,31,27,96,62,37,29.99,29.81,21,4,30,0.01
2013-9-29,60,55,46,35,31,28,65,41,34,29.81,29.48,29,9,37,0.00
2013-9-30,57,48,39,43,38,26,89,70,43,29.77,29.37,24,6,33,0.05